LGPZ/PVK METAR and TAF weather

Enter ICAO airport designator
Station Type Date Time Source
LGPZ METAR 2020/09/19 00:50 UTC NOAA

LGPZ 190050Z 00000KT 9999 SCT008 FEW018TCU BKN025 OVC070 20/19 Q1011


Station Type Date Time Source
LGPZ Decoded METAR 2020/09/19 00:50 UTC NOAA

Aktion Airport , Greece (LGPZ) 38-37N 020-46E 4M
Sep 18, 2020 - 08:50 PM EDT / 2020.09.19 0050 UTC
Wind: Calm:0
Visibility: greater than 7 mile(s):0
Sky conditions: overcast
Weather: Towering cumulus clouds observed
Temperature: 68 F (20 C)
Dew Point: 66 F (19 C)
Relative Humidity: 93%
Pressure (altimeter): 29.85 in. Hg (1011 hPa)
ob: LGPZ 190050Z 00000KT 9999 SCT008 FEW018TCU BKN025 OVC070 20/19 Q1011
cycle: 1

Station Type Date Time Source
LGPZ TAF 2020/09/18 18:16 UTC NOAA

TAF LGPZ 181700Z 1818/1918 35015KT 8000 FEW008 SCT025 BKN070 PROB40
TEMPO 1818/1915 4000 RA SCT008 FEW018TCU BKN025 PROB40
TEMPO 1818/1912 3000 TSRA SCT005 FEW016CB OVC020
BECMG 1906/1908 06015KT

Example: see airport list